createdAt,value
2018-05-03T00:00:31.443Z,4.90
2018-05-03T00:02:59.021Z,5.13
2018-05-03T00:05:26.520Z,4.20
2018-05-03T00:07:54.112Z,4.50
2018-05-03T00:10:21.607Z,5.33
2018-05-03T00:12:50.252Z,5.70
2018-05-03T00:15:17.858Z,5.40
2018-05-03T00:17:45.434Z,5.43
2018-05-03T00:20:12.959Z,5.40
2018-05-03T00:22:40.524Z,5.23
2018-05-03T00:25:08.060Z,4.53
2018-05-03T00:27:36.365Z,5.80
2018-05-03T00:30:03.900Z,5.00
2018-05-03T00:32:31.466Z,4.50
2018-05-03T00:34:58.967Z,4.73
2018-05-03T00:37:27.301Z,3.77
2018-05-03T00:39:54.892Z,4.00
2018-05-03T00:42:22.467Z,4.07
2018-05-03T00:44:50.043Z,4.57
2018-05-03T00:47:17.572Z,4.53
2018-05-03T00:49:45.133Z,4.23
2018-05-03T00:52:12.688Z,3.90
2018-05-03T00:54:47.740Z,4.10
2018-05-03T00:57:16.100Z,4.47
2018-05-03T00:59:43.641Z,4.03
2018-05-03T01:02:11.161Z,4.23
2018-05-03T01:04:39.491Z,4.50
2018-05-03T01:07:07.085Z,4.50
2018-05-03T01:09:34.695Z,3.90
2018-05-03T01:12:02.231Z,4.60
2018-05-03T01:14:29.785Z,4.40
2018-05-03T01:16:57.341Z,4.23
2018-05-03T01:19:24.896Z,4.93
2018-05-03T01:21:52.460Z,5.13
2018-05-03T01:24:20.847Z,5.13
2018-05-03T01:26:48.369Z,4.77
2018-05-03T01:29:15.939Z,6.10
2018-05-03T01:31:43.528Z,5.70
2018-05-03T01:34:11.069Z,6.00
2018-05-03T01:36:38.613Z,6.00
2018-05-03T01:39:06.909Z,7.07
2018-05-03T01:41:35.234Z,7.10
2018-05-03T01:44:02.776Z,7.37
2018-05-03T01:46:31.185Z,7.57
2018-05-03T01:48:58.760Z,8.30
2018-05-03T01:51:26.296Z,8.40
2018-05-03T01:53:54.679Z,9.07
2018-05-03T01:56:22.296Z,8.80
2018-05-03T01:58:49.873Z,11.33
2018-05-03T02:01:17.498Z,9.53
2018-05-03T02:03:45.053Z,10.23
2018-05-03T02:06:12.648Z,11.37
2018-05-03T02:08:40.184Z,11.90
2018-05-03T02:11:07.743Z,12.83
2018-05-03T02:13:35.315Z,12.53
2018-05-03T02:16:02.867Z,12.10
2018-05-03T02:18:30.405Z,11.77
2018-05-03T02:20:58.041Z,12.43
2018-05-03T02:23:25.636Z,12.40
2018-05-03T02:25:53.192Z,12.97
2018-05-03T02:28:20.767Z,13.87
2018-05-03T02:30:48.329Z,14.90
2018-05-03T02:33:15.862Z,13.73
2018-05-03T02:35:44.193Z,15.83
2018-05-03T02:38:11.757Z,15.43
2018-05-03T02:40:39.311Z,15.57
2018-05-03T02:43:06.867Z,18.07
2018-05-03T02:45:34.417Z,17.90
2018-05-03T02:48:02.000Z,15.87
2018-05-03T02:50:30.366Z,17.57
2018-05-03T02:52:57.961Z,17.13
2018-05-03T02:55:26.356Z,15.43
2018-05-03T02:58:12.496Z,16.37
2018-05-03T03:00:57.636Z,16.67
2018-05-03T03:07:14.054Z,16.33
2018-05-03T03:13:43.832Z,15.80
2018-05-03T03:16:29.037Z,14.17
2018-05-03T03:19:14.150Z,12.63
2018-05-03T03:22:00.193Z,10.90
2018-05-03T03:24:40.369Z,9.67
2018-05-03T03:27:25.558Z,9.87
2018-05-03T03:30:05.073Z,9.30
2018-05-03T03:32:45.186Z,8.43
2018-05-03T03:38:36.292Z,8.70
2018-05-03T03:41:15.643Z,8.63
2018-05-03T03:43:55.255Z,8.80
2018-05-03T03:46:22.779Z,8.20
2018-05-03T03:48:51.993Z,8.30
2018-05-03T03:51:27.900Z,7.43
2018-05-03T03:53:57.812Z,7.60
2018-05-03T03:56:25.558Z,8.73
2018-05-03T03:58:53.233Z,6.90
2018-05-03T04:01:21.518Z,7.67
2018-05-03T04:03:49.826Z,8.10
2018-05-03T04:06:17.340Z,8.23
2018-05-03T04:08:45.034Z,7.43
2018-05-03T04:11:12.588Z,7.10
2018-05-03T04:13:40.229Z,7.80
2018-05-03T04:16:07.747Z,7.33
2018-05-03T04:18:47.313Z,7.60
2018-05-03T04:21:27.453Z,7.40
2018-05-03T04:24:08.754Z,7.00
2018-05-03T04:26:36.297Z,7.27
2018-05-03T04:29:03.887Z,7.63
2018-05-03T04:31:31.490Z,8.60
2018-05-03T04:33:59.022Z,7.70
2018-05-03T04:36:26.702Z,8.40
2018-05-03T04:38:54.280Z,7.97
2018-05-03T04:41:21.851Z,8.37
2018-05-03T04:43:49.381Z,8.83
2018-05-03T04:46:17.257Z,9.77
2018-05-03T04:48:44.833Z,8.73
2018-05-03T04:51:12.374Z,7.97
2018-05-03T04:53:39.890Z,8.70
2018-05-03T04:56:07.517Z,9.03
2018-05-03T04:58:35.060Z,7.80
2018-05-03T05:01:02.627Z,8.30
2018-05-03T05:03:30.260Z,9.13
2018-05-03T05:05:58.556Z,8.60
2018-05-03T05:08:26.076Z,8.33
2018-05-03T05:10:53.649Z,8.97
2018-05-03T05:13:21.202Z,8.17
2018-05-03T05:15:48.754Z,8.10
2018-05-03T05:18:16.339Z,7.73
2018-05-03T05:20:43.901Z,8.57
2018-05-03T05:23:11.481Z,6.70
2018-05-03T05:25:39.021Z,6.17
2018-05-03T05:28:18.583Z,6.93
2018-05-03T05:30:46.406Z,7.00
2018-05-03T05:33:15.030Z,6.67
2018-05-03T05:35:43.670Z,7.00
2018-05-03T05:38:11.326Z,7.40
2018-05-03T05:40:39.637Z,6.97
2018-05-03T05:43:07.202Z,7.10
2018-05-03T05:45:34.769Z,6.00
2018-05-03T05:48:02.333Z,6.00
2018-05-03T05:50:30.726Z,5.50
2018-05-03T05:52:59.040Z,5.90
2018-05-03T05:55:26.598Z,7.10
2018-05-03T05:57:54.120Z,5.50
2018-05-03T06:00:21.643Z,6.20
2018-05-03T06:02:49.170Z,5.63
2018-05-03T06:05:16.684Z,5.43
2018-05-03T06:07:44.264Z,6.17
2018-05-03T06:10:11.823Z,5.97
2018-05-03T06:12:39.399Z,4.80
2018-05-03T06:15:06.912Z,4.60
2018-05-03T06:17:34.425Z,4.77
2018-05-03T06:20:02.726Z,4.40
2018-05-03T06:22:30.548Z,5.50
2018-05-03T06:24:58.101Z,3.97
2018-05-03T06:27:25.623Z,5.27
2018-05-03T06:29:53.225Z,4.57
2018-05-03T06:32:20.770Z,4.50
2018-05-03T06:34:49.235Z,4.63
2018-05-03T06:37:16.844Z,4.50
2018-05-03T06:39:45.132Z,4.97
2018-05-03T06:42:13.422Z,3.80
2018-05-03T06:44:40.954Z,4.30
2018-05-03T06:47:08.469Z,4.40
2018-05-03T06:49:36.760Z,5.10
2018-05-03T06:52:04.305Z,4.83
2018-05-03T06:54:31.804Z,5.53
2018-05-03T06:57:00.092Z,4.80
2018-05-03T06:59:28.398Z,4.77
2018-05-03T07:01:55.919Z,4.40
2018-05-03T07:04:23.640Z,3.93
2018-05-03T07:06:51.048Z,3.87
2018-05-03T07:09:19.368Z,3.80
2018-05-03T07:11:46.904Z,3.40
2018-05-03T07:14:14.524Z,3.70
2018-05-03T07:16:42.806Z,3.63
2018-05-03T07:19:10.385Z,3.20
2018-05-03T07:21:38.690Z,3.40
2018-05-03T07:24:06.442Z,2.90
2018-05-03T07:26:34.913Z,2.80
2018-05-03T07:29:02.784Z,2.97
2018-05-03T07:31:30.338Z,2.87
2018-05-03T07:33:57.841Z,2.90
2018-05-03T07:36:26.712Z,3.37
2018-05-03T07:38:54.591Z,2.70
2018-05-03T07:41:22.089Z,2.80
2018-05-03T07:43:49.853Z,3.37
2018-05-03T07:46:17.428Z,3.10
2018-05-03T07:48:44.980Z,3.60
2018-05-03T07:51:12.498Z,3.73
2018-05-03T07:53:40.052Z,3.60
2018-05-03T07:56:07.578Z,3.00
2018-05-03T07:58:35.113Z,3.37
2018-05-03T08:01:02.871Z,3.27
2018-05-03T08:03:30.196Z,3.43
2018-05-03T08:05:57.725Z,3.30
2018-05-03T08:08:25.383Z,3.40
2018-05-03T08:10:52.938Z,2.67
2018-05-03T08:13:20.492Z,3.00
2018-05-03T08:15:48.012Z,2.90
2018-05-03T08:18:15.549Z,2.90
2018-05-03T08:20:45.731Z,3.47
2018-05-03T08:23:14.073Z,2.83
2018-05-03T08:25:41.867Z,3.37
2018-05-03T08:28:09.461Z,2.83
2018-05-03T08:30:36.995Z,2.57
2018-05-03T08:33:04.585Z,2.43
2018-05-03T08:35:32.098Z,2.67
2018-05-03T08:38:00.563Z,2.40
2018-05-03T08:40:28.122Z,2.70
2018-05-03T08:42:55.689Z,3.20
2018-05-03T08:45:23.194Z,2.90
2018-05-03T08:47:51.542Z,3.40
2018-05-03T08:50:19.097Z,3.60
2018-05-03T08:52:46.812Z,3.60
2018-05-03T08:55:14.408Z,3.90
2018-05-03T08:57:42.243Z,2.40
2018-05-03T09:00:09.757Z,3.10
2018-05-03T09:02:38.374Z,2.37
2018-05-03T09:05:05.920Z,2.20
2018-05-03T09:07:33.449Z,2.33
2018-05-03T09:10:00.966Z,2.33
2018-05-03T09:12:29.337Z,2.03
2018-05-03T09:14:57.008Z,2.30
2018-05-03T09:17:24.519Z,2.70
2018-05-03T09:19:52.058Z,2.55
2018-05-03T09:22:19.553Z,2.70
2018-05-03T09:24:48.008Z,2.37
2018-05-03T09:27:15.516Z,2.77
2018-05-03T09:29:43.056Z,3.13
2018-05-03T09:32:10.611Z,2.90
2018-05-03T09:34:38.171Z,3.00
2018-05-03T09:37:05.670Z,3.17
2018-05-03T09:39:33.225Z,3.77
2018-05-03T09:42:00.864Z,3.87
2018-05-03T09:44:28.407Z,3.20
2018-05-03T09:46:55.946Z,3.20
2018-05-03T09:49:23.479Z,3.03
2018-05-03T09:51:54.120Z,4.13
2018-05-03T09:54:21.772Z,4.07
2018-05-03T09:56:49.288Z,3.50
2018-05-03T09:59:16.889Z,4.57
2018-05-03T10:01:44.411Z,4.30
2018-05-03T10:04:11.970Z,4.47
2018-05-03T10:06:40.293Z,4.33
2018-05-03T10:09:07.983Z,3.60
2018-05-03T10:11:36.233Z,4.13
2018-05-03T10:14:04.510Z,3.17
2018-05-03T10:16:32.846Z,3.80
2018-05-03T10:19:00.501Z,4.87
2018-05-03T10:21:28.021Z,3.80
2018-05-03T10:23:56.292Z,4.20
2018-05-03T10:26:23.857Z,4.93
2018-05-03T10:28:51.381Z,4.27
2018-05-03T10:31:19.787Z,4.40
2018-05-03T10:33:47.352Z,4.40
2018-05-03T10:36:15.986Z,3.87
2018-05-03T10:38:43.621Z,4.03
2018-05-03T10:41:11.901Z,3.60
2018-05-03T10:43:39.461Z,3.60
2018-05-03T10:46:08.468Z,3.77
2018-05-03T10:48:36.610Z,4.23
2018-05-03T10:51:04.152Z,3.87
2018-05-03T10:53:31.681Z,4.10
2018-05-03T10:55:59.216Z,4.63
2018-05-03T10:58:26.809Z,4.23
2018-05-03T11:00:55.668Z,3.80
2018-05-03T11:03:23.214Z,4.07
2018-05-03T11:05:50.721Z,4.07
2018-05-03T11:08:18.316Z,3.53
2018-05-03T11:10:45.820Z,3.83
2018-05-03T11:13:13.362Z,4.07
2018-05-03T11:15:41.086Z,4.03
2018-05-03T11:18:08.633Z,4.50
2018-05-03T11:20:36.247Z,3.60
2018-05-03T11:23:03.790Z,3.83
2018-05-03T11:25:31.296Z,3.90
2018-05-03T11:27:58.965Z,3.63
2018-05-03T11:30:26.460Z,3.60
2018-05-03T11:32:53.992Z,4.00
2018-05-03T11:35:22.474Z,3.63
2018-05-03T11:37:50.183Z,3.10
2018-05-03T11:40:17.997Z,3.23
2018-05-03T11:42:45.590Z,3.77
2018-05-03T11:45:13.142Z,3.93
2018-05-03T11:47:40.644Z,3.87
2018-05-03T11:50:08.928Z,3.97
2018-05-03T11:52:36.531Z,3.67
2018-05-03T11:55:04.269Z,3.43
2018-05-03T11:57:31.778Z,2.97
2018-05-03T11:59:59.905Z,3.17
2018-05-03T12:02:28.923Z,3.10
2018-05-03T12:04:56.481Z,3.50
2018-05-03T12:07:29.178Z,3.97
2018-05-03T12:09:56.746Z,3.77
2018-05-03T12:12:24.362Z,4.00
2018-05-03T12:14:52.674Z,3.90
2018-05-03T12:17:20.232Z,4.00
2018-05-03T12:19:48.540Z,4.83
2018-05-03T12:22:17.333Z,4.47
2018-05-03T12:24:44.885Z,4.30
2018-05-03T12:27:13.196Z,4.30
2018-05-03T12:29:40.799Z,3.50
2018-05-03T12:32:08.335Z,3.87
2018-05-03T12:34:35.878Z,3.70
2018-05-03T12:37:03.474Z,4.00
2018-05-03T12:39:31.817Z,3.87
2018-05-03T12:41:59.329Z,5.10
2018-05-03T12:44:27.604Z,4.00
2018-05-03T12:46:55.245Z,5.23
2018-05-03T12:49:22.740Z,3.60
2018-05-03T12:51:50.417Z,3.93
2018-05-03T12:54:18.022Z,3.53
2018-05-03T12:56:45.540Z,3.60
2018-05-03T12:59:13.044Z,4.50
2018-05-03T13:01:41.398Z,3.70
2018-05-03T13:04:08.919Z,4.40
2018-05-03T13:06:37.238Z,4.00
2018-05-03T13:09:04.844Z,3.93
2018-05-03T13:11:32.368Z,3.87
2018-05-03T13:13:59.935Z,4.93
2018-05-03T13:16:27.483Z,4.10
2018-05-03T13:18:55.105Z,3.93
2018-05-03T13:21:22.667Z,4.00
2018-05-03T13:23:50.164Z,3.33
2018-05-03T13:26:17.684Z,3.50
2018-05-03T13:28:46.022Z,3.60
2018-05-03T13:31:13.778Z,3.50
2018-05-03T13:33:41.272Z,4.10
2018-05-03T13:36:08.940Z,3.83
2018-05-03T13:38:36.463Z,3.60
2018-05-03T13:41:04.759Z,3.67
2018-05-03T13:43:33.284Z,4.07
2018-05-03T13:46:00.810Z,3.70
2018-05-03T13:48:29.112Z,3.80
2018-05-03T13:50:57.552Z,4.13
2018-05-03T13:53:25.509Z,3.53
2018-05-03T13:55:53.783Z,4.20
2018-05-03T13:58:21.329Z,3.40
2018-05-03T14:00:48.875Z,3.40
2018-05-03T14:03:16.791Z,3.70
2018-05-03T14:05:45.432Z,3.53
2018-05-03T14:08:13.021Z,3.63
2018-05-03T14:10:40.572Z,3.73
2018-05-03T14:13:08.232Z,3.60
2018-05-03T14:15:35.798Z,3.67
2018-05-03T14:18:03.424Z,4.03
2018-05-03T14:20:37.613Z,3.47
2018-05-03T14:23:05.213Z,3.40
2018-05-03T14:25:32.867Z,3.80
2018-05-03T14:28:00.462Z,3.80
2018-05-03T14:30:28.009Z,4.87
2018-05-03T14:32:55.561Z,3.70
2018-05-03T14:35:23.309Z,2.93
2018-05-03T14:37:50.855Z,4.10
2018-05-03T14:40:18.898Z,4.20
2018-05-03T14:42:54.440Z,3.90
2018-05-03T14:45:22.790Z,3.97
2018-05-03T14:47:50.308Z,3.77
2018-05-03T14:50:18.651Z,4.30
2018-05-03T14:52:46.183Z,3.10
2018-05-03T14:55:13.832Z,3.60
2018-05-03T14:57:42.193Z,3.33
2018-05-03T15:00:10.052Z,3.60
2018-05-03T15:05:17.429Z,3.80
2018-05-03T15:07:44.953Z,3.47
2018-05-03T15:10:12.685Z,4.17
2018-05-03T15:12:42.019Z,3.73
2018-05-03T15:15:09.692Z,4.10
2018-05-03T15:17:37.471Z,3.70
2018-05-03T15:20:05.102Z,3.57
2018-05-03T15:22:32.747Z,3.63
2018-05-03T15:25:00.562Z,3.67
2018-05-03T15:27:28.086Z,3.50
2018-05-03T15:29:57.149Z,3.87
2018-05-03T15:32:25.541Z,3.20
2018-05-03T15:34:54.594Z,3.40
2018-05-03T15:37:35.228Z,3.10
2018-05-03T15:40:02.734Z,2.80
2018-05-03T15:42:34.458Z,3.10
2018-05-03T15:45:02.001Z,3.33
2018-05-03T15:47:29.721Z,4.00
2018-05-03T15:49:58.246Z,3.33
2018-05-03T15:52:26.521Z,3.17
2018-05-03T15:54:55.141Z,3.20
2018-05-03T15:57:23.140Z,3.57
2018-05-03T15:59:50.740Z,3.57
2018-05-03T16:02:19.200Z,3.10
2018-05-03T16:04:59.545Z,3.13
2018-05-03T16:07:27.300Z,2.80
2018-05-03T16:09:58.737Z,2.60
2018-05-03T16:12:29.674Z,3.00
2018-05-03T16:14:58.295Z,3.43
2018-05-03T16:17:25.971Z,3.33
2018-05-03T16:19:53.680Z,3.10
2018-05-03T16:22:21.254Z,2.80
2018-05-03T16:24:48.857Z,3.67
2018-05-03T16:27:17.085Z,2.67
2018-05-03T16:29:44.583Z,2.53
2018-05-03T16:32:12.122Z,3.07
2018-05-03T16:34:39.717Z,3.03
2018-05-03T16:37:07.976Z,3.13
2018-05-03T16:39:35.530Z,3.00
2018-05-03T16:42:03.048Z,3.60
2018-05-03T16:44:40.850Z,3.00
2018-05-03T16:47:09.250Z,3.07
2018-05-03T16:49:37.535Z,2.73
2018-05-03T16:52:06.662Z,3.50
2018-05-03T16:54:34.253Z,2.90
2018-05-03T16:57:01.804Z,3.13
2018-05-03T16:59:30.100Z,3.00
2018-05-03T17:01:57.629Z,2.40
2018-05-03T17:04:25.176Z,2.90
2018-05-03T17:06:52.714Z,3.00
2018-05-03T17:09:21.195Z,2.53
2018-05-03T17:11:49.481Z,2.83
2018-05-03T17:14:18.589Z,3.57
2018-05-03T17:16:46.936Z,3.10
2018-05-03T17:19:15.332Z,2.20
2018-05-03T17:21:42.927Z,3.10
2018-05-03T17:24:10.601Z,2.77
2018-05-03T17:26:39.673Z,2.50
2018-05-03T17:29:07.261Z,2.90
2018-05-03T17:31:34.791Z,2.40
2018-05-03T17:34:02.343Z,2.77
2018-05-03T17:36:30.141Z,2.73
2018-05-03T17:38:57.658Z,2.60
2018-05-03T17:41:25.179Z,3.27
2018-05-03T17:43:52.710Z,2.60
2018-05-03T17:46:20.248Z,2.80
2018-05-03T17:48:47.772Z,2.90
2018-05-03T17:51:16.054Z,2.67
2018-05-03T17:53:43.670Z,2.70
2018-05-03T17:56:11.209Z,3.67
2018-05-03T17:58:39.520Z,3.10
2018-05-03T18:01:07.117Z,3.20
2018-05-03T18:03:34.682Z,2.57
2018-05-03T18:06:02.641Z,2.83
2018-05-03T18:08:30.280Z,2.70
2018-05-03T18:10:57.790Z,2.50
2018-05-03T18:13:25.460Z,3.30
2018-05-03T18:15:53.020Z,3.80
2018-05-03T18:18:21.357Z,3.00
2018-05-03T18:20:49.295Z,3.53
2018-05-03T18:23:16.813Z,3.67
2018-05-03T18:25:45.986Z,3.30
2018-05-03T18:28:13.583Z,3.40
2018-05-03T18:30:41.414Z,3.57
2018-05-03T18:33:08.916Z,3.50
2018-05-03T18:35:36.578Z,3.20
2018-05-03T18:38:05.668Z,3.10
2018-05-03T18:40:34.300Z,2.47
2018-05-03T18:43:01.953Z,3.10
2018-05-03T18:45:30.269Z,3.23
2018-05-03T18:47:58.537Z,3.60
2018-05-03T18:50:26.057Z,2.67
2018-05-03T18:52:53.592Z,2.90
2018-05-03T18:55:21.142Z,2.87
2018-05-03T18:57:49.475Z,2.60
2018-05-03T19:00:17.471Z,2.83
2018-05-03T19:02:45.484Z,3.10
2018-05-03T19:05:13.877Z,3.90
2018-05-03T19:07:41.462Z,2.30
2018-05-03T19:10:10.133Z,2.97
2018-05-03T19:12:37.664Z,3.17
2018-05-03T19:15:06.046Z,2.80
2018-05-03T19:17:33.555Z,2.20
2018-05-03T19:20:01.114Z,3.50
2018-05-03T19:22:28.637Z,3.30
2018-05-03T19:24:56.215Z,3.20
2018-05-03T19:27:23.780Z,2.40
2018-05-03T19:29:52.107Z,2.90
2018-05-03T19:32:19.610Z,3.27
2018-05-03T19:34:47.133Z,2.60
2018-05-03T19:37:14.650Z,2.77
2018-05-03T19:39:42.220Z,2.70
2018-05-03T19:42:09.747Z,2.60
2018-05-03T19:44:37.272Z,2.70
2018-05-03T19:47:06.313Z,2.47
2018-05-03T19:49:33.845Z,2.53
2018-05-03T19:52:01.400Z,2.17
2018-05-03T19:54:28.950Z,3.00
2018-05-03T19:56:56.489Z,2.67
2018-05-03T19:59:24.799Z,2.53
2018-05-03T20:01:52.437Z,3.23
2018-05-03T20:04:19.973Z,2.67
2018-05-03T20:06:47.517Z,3.13
2018-05-03T20:09:15.042Z,3.20
2018-05-03T20:11:43.353Z,2.53
2018-05-03T20:14:11.676Z,3.10
2018-05-03T20:16:39.202Z,2.33
2018-05-03T20:19:06.809Z,3.07
2018-05-03T20:21:34.325Z,2.90
2018-05-03T20:24:01.858Z,2.50
2018-05-03T20:26:29.397Z,2.67
2018-05-03T20:28:57.689Z,3.20
2018-05-03T20:31:26.006Z,2.90
2018-05-03T20:33:53.509Z,3.87
2018-05-03T20:36:21.077Z,3.00
2018-05-03T20:38:48.590Z,3.10
2018-05-03T20:41:16.923Z,3.10
2018-05-03T20:43:44.473Z,2.93
2018-05-03T20:46:12.137Z,3.43
2018-05-03T20:48:39.579Z,3.50
2018-05-03T20:51:07.146Z,2.87
2018-05-03T20:53:34.723Z,3.43
2018-05-03T20:56:02.304Z,3.03
2018-05-03T20:58:29.910Z,3.33
2018-05-03T21:00:57.506Z,3.63
2018-05-03T21:03:25.094Z,3.97
2018-05-03T21:05:52.656Z,4.33
2018-05-03T21:08:20.173Z,3.33
2018-05-03T21:10:47.687Z,3.70
2018-05-03T21:13:15.242Z,3.93
2018-05-03T21:15:42.859Z,4.17
2018-05-03T21:18:10.434Z,4.80
2018-05-03T21:20:37.962Z,3.40
2018-05-03T21:23:05.544Z,4.17
2018-05-03T21:25:33.060Z,4.20
2018-05-03T21:28:00.589Z,3.80
2018-05-03T21:30:28.145Z,4.50
2018-05-03T21:32:55.820Z,4.10
2018-05-03T21:35:23.391Z,3.37
2018-05-03T21:37:51.026Z,3.50
2018-05-03T21:40:19.335Z,3.80
2018-05-03T21:42:47.868Z,4.27
2018-05-03T21:45:15.409Z,5.00
2018-05-03T21:47:43.724Z,3.83
2018-05-03T21:50:11.274Z,4.70
2018-05-03T21:52:39.611Z,4.40
2018-05-03T21:55:07.145Z,4.60
2018-05-03T21:57:34.701Z,4.40
2018-05-03T22:00:02.996Z,4.57
2018-05-03T22:02:31.304Z,4.70
2018-05-03T22:04:58.847Z,4.40
2018-05-03T22:07:26.419Z,4.80
2018-05-03T22:09:54.718Z,4.43
2018-05-03T22:12:23.036Z,4.20
2018-05-03T22:14:50.572Z,3.83
2018-05-03T22:17:18.884Z,4.10
2018-05-03T22:19:46.424Z,4.27
2018-05-03T22:22:13.965Z,3.57
2018-05-03T22:24:41.502Z,4.07
2018-05-03T22:27:09.045Z,3.83
2018-05-03T22:29:36.564Z,3.43
2018-05-03T22:32:04.136Z,4.03
2018-05-03T22:34:31.671Z,3.73
2018-05-03T22:36:59.987Z,3.53
2018-05-03T22:39:27.502Z,3.53
2018-05-03T22:41:55.861Z,4.93
2018-05-03T22:44:23.412Z,4.57
2018-05-03T22:46:50.957Z,3.40
2018-05-03T22:49:18.483Z,4.67
2018-05-03T22:51:45.998Z,4.03
2018-05-03T22:54:13.574Z,3.63
2018-05-03T22:56:41.870Z,3.50
2018-05-03T22:59:10.172Z,3.40
2018-05-03T23:01:37.700Z,4.43
2018-05-03T23:04:05.255Z,3.53
2018-05-03T23:06:32.815Z,4.40
2018-05-03T23:09:00.434Z,3.77
2018-05-03T23:11:28.001Z,3.97
2018-05-03T23:13:55.575Z,3.70
2018-05-03T23:16:23.112Z,4.80
2018-05-03T23:18:50.707Z,4.00
2018-05-03T23:21:18.251Z,4.13
2018-05-03T23:23:45.857Z,4.47
2018-05-03T23:26:13.403Z,4.43
2018-05-03T23:28:40.947Z,3.60
2018-05-03T23:31:08.557Z,2.60
2018-05-03T23:33:36.158Z,3.80
2018-05-03T23:36:03.693Z,3.03
2018-05-03T23:38:31.258Z,3.90
2018-05-03T23:40:58.784Z,3.80
2018-05-03T23:43:27.099Z,3.40
2018-05-03T23:45:54.662Z,3.57
2018-05-03T23:48:22.229Z,3.23
2018-05-03T23:50:50.545Z,3.47
2018-05-03T23:53:18.160Z,4.20
2018-05-03T23:55:46.504Z,3.63
2018-05-03T23:58:14.062Z,3.50
